createdAt,value
2019-03-03T00:03:34.187Z,7.10
2019-03-03T00:06:03.097Z,7.30
2019-03-03T00:08:31.985Z,7.30
2019-03-03T00:11:00.766Z,7.30
2019-03-03T00:13:29.630Z,7.40
2019-03-03T00:15:58.735Z,7.40
2019-03-03T00:18:27.591Z,7.40
2019-03-03T00:20:56.800Z,7.40
2019-03-03T00:25:53.988Z,7.40
2019-03-03T00:28:22.877Z,7.50
2019-03-03T00:30:52.068Z,7.30
2019-03-03T00:33:20.940Z,7.30
2019-03-03T00:35:49.769Z,7.30
2019-03-03T00:38:26.724Z,7.30
2019-03-03T00:41:17.512Z,7.30
2019-03-03T00:44:02.321Z,7.10
2019-03-03T00:49:39.567Z,7.10
2019-03-03T00:52:39.651Z,7.10
2019-03-03T00:55:26.217Z,7.20
2019-03-03T00:58:13.335Z,7.20
2019-03-03T01:00:51.001Z,7.20
2019-03-03T01:03:39.126Z,7.10
2019-03-03T01:06:37.678Z,7.20
2019-03-03T01:09:37.791Z,7.20
2019-03-03T01:12:24.350Z,7.20
2019-03-03T01:15:17.905Z,7.20
2019-03-03T01:18:01.967Z,7.10
2019-03-03T01:20:36.347Z,7.10
2019-03-03T01:23:24.207Z,7.10
2019-03-03T01:25:52.972Z,7.10
2019-03-03T01:28:21.709Z,7.10
2019-03-03T01:30:50.781Z,7.10
2019-03-03T01:33:19.629Z,7.10
2019-03-03T01:35:48.513Z,7.20
2019-03-03T01:38:17.331Z,7.10
2019-03-03T01:40:46.130Z,6.90
2019-03-03T01:45:43.375Z,7.00
2019-03-03T01:48:12.406Z,7.00
2019-03-03T01:50:41.158Z,7.00
2019-03-03T01:53:09.935Z,7.00
2019-03-03T01:55:38.671Z,7.00
2019-03-03T01:58:07.421Z,7.00
2019-03-03T02:00:36.214Z,7.10
2019-03-03T02:03:05.017Z,7.10
2019-03-03T02:05:33.800Z,7.20
2019-03-03T02:08:02.605Z,7.20
2019-03-03T02:10:31.401Z,7.20
2019-03-03T02:13:00.161Z,7.20
2019-03-03T02:15:28.901Z,7.20
2019-03-03T02:17:57.742Z,7.20
2019-03-03T02:20:26.717Z,7.20
2019-03-03T02:22:55.829Z,7.30
2019-03-03T02:27:53.438Z,7.30
2019-03-03T02:30:22.479Z,7.40
2019-03-03T02:32:51.303Z,7.40
2019-03-03T02:35:20.114Z,7.40
2019-03-03T02:37:48.843Z,7.40
2019-03-03T02:40:17.832Z,7.40
2019-03-03T02:42:47.600Z,7.50
2019-03-03T02:45:16.429Z,7.50
2019-03-03T02:50:13.759Z,7.50
2019-03-03T02:52:42.544Z,7.50
2019-03-03T02:55:12.313Z,7.50
2019-03-03T02:57:41.067Z,7.50
2019-03-03T03:00:14.089Z,7.60
2019-03-03T03:02:47.956Z,7.70
2019-03-03T03:05:21.738Z,7.60
2019-03-03T03:07:55.161Z,7.50
2019-03-03T03:13:48.939Z,7.60
2019-03-03T03:16:32.650Z,7.60
2019-03-03T03:19:08.470Z,7.60
2019-03-03T03:21:50.907Z,7.50
2019-03-03T03:24:27.857Z,7.60
2019-03-03T03:27:16.067Z,7.60
2019-03-03T03:30:02.789Z,7.60
2019-03-03T03:32:56.989Z,7.50
2019-03-03T03:35:30.708Z,7.60
2019-03-03T03:40:52.971Z,7.50
2019-03-03T03:43:39.470Z,7.60
2019-03-03T03:46:30.427Z,7.60
2019-03-03T03:49:24.683Z,7.60
2019-03-03T03:52:15.946Z,7.50
2019-03-03T03:55:02.594Z,7.50
2019-03-03T03:57:40.580Z,7.60
2019-03-03T04:00:31.796Z,7.50
2019-03-03T04:03:25.676Z,7.50
2019-03-03T04:06:09.931Z,7.40
2019-03-03T04:11:37.314Z,7.40
2019-03-03T04:14:32.229Z,7.60
2019-03-03T04:17:18.813Z,7.70
2019-03-03T04:20:03.852Z,7.70
2019-03-03T04:22:47.724Z,7.60
2019-03-03T04:25:33.011Z,7.60
2019-03-03T04:28:12.401Z,7.60
2019-03-03T04:33:41.996Z,7.60
2019-03-03T04:36:28.471Z,7.70
2019-03-03T04:39:10.559Z,7.70
2019-03-03T04:41:57.280Z,7.80
2019-03-03T04:44:45.106Z,7.80
2019-03-03T04:47:22.510Z,7.80
2019-03-03T04:50:13.258Z,8.60
2019-03-03T04:52:50.691Z,8.00
2019-03-03T05:04:09.078Z,8.10
2019-03-03T05:06:49.940Z,8.10
2019-03-03T05:09:28.183Z,8.20
2019-03-03T05:12:40.665Z,8.20
2019-03-03T05:15:33.282Z,8.10
2019-03-03T05:18:13.494Z,7.90
2019-03-03T05:20:47.047Z,7.90
2019-03-03T05:23:15.885Z,7.90
2019-03-03T05:25:44.989Z,7.80
2019-03-03T05:30:42.339Z,7.80
2019-03-03T05:33:11.114Z,7.90
2019-03-03T05:35:39.885Z,7.90
2019-03-03T05:38:08.639Z,8.00
2019-03-03T05:40:37.778Z,7.90
2019-03-03T05:43:06.598Z,7.80
2019-03-03T05:45:35.470Z,7.80
2019-03-03T05:48:04.290Z,7.60
2019-03-03T05:53:01.534Z,7.40
2019-03-03T05:55:30.347Z,7.30
2019-03-03T05:57:59.302Z,7.20
2019-03-03T06:00:28.162Z,7.10
2019-03-03T06:02:56.922Z,7.00
2019-03-03T06:05:26.023Z,6.90
2019-03-03T06:07:54.918Z,6.90
2019-03-03T06:10:23.841Z,6.80
2019-03-03T06:15:21.005Z,6.80
2019-03-03T06:17:49.733Z,7.00
2019-03-03T06:20:18.518Z,6.90
2019-03-03T06:22:47.339Z,6.70
2019-03-03T06:25:16.185Z,6.70
2019-03-03T06:27:45.096Z,6.70
2019-03-03T06:30:14.261Z,6.40
2019-03-03T06:32:43.110Z,6.40
2019-03-03T06:37:40.243Z,6.30
2019-03-03T06:40:09.656Z,6.30
2019-03-03T06:42:38.441Z,6.30
2019-03-03T06:45:08.356Z,6.20
2019-03-03T06:47:37.139Z,6.10
2019-03-03T06:50:07.687Z,6.10
2019-03-03T06:52:36.446Z,6.00
2019-03-03T06:55:05.615Z,5.90
2019-03-03T07:00:02.704Z,6.20
2019-03-03T07:02:31.579Z,6.40
2019-03-03T07:05:00.372Z,6.50
2019-03-03T07:07:29.337Z,6.40
2019-03-03T07:09:58.231Z,6.70
2019-03-03T07:12:27.183Z,6.90
2019-03-03T07:14:56.049Z,7.10
2019-03-03T07:17:24.866Z,7.40
2019-03-03T07:22:22.405Z,7.80
2019-03-03T07:24:51.286Z,8.00
2019-03-03T07:27:20.107Z,8.30
2019-03-03T07:29:48.891Z,8.50
2019-03-03T07:32:18.042Z,8.70
2019-03-03T07:34:47.165Z,9.70
2019-03-03T07:37:16.423Z,9.30
2019-03-03T07:39:45.260Z,9.40
2019-03-03T07:44:43.153Z,9.50
2019-03-03T07:47:12.418Z,9.60
2019-03-03T07:49:41.248Z,9.80
2019-03-03T07:52:10.022Z,9.80
2019-03-03T07:54:38.735Z,9.90
2019-03-03T07:57:07.498Z,10.00
2019-03-03T07:59:36.231Z,10.30
2019-03-03T08:04:33.876Z,10.60
2019-03-03T08:07:02.751Z,11.40
2019-03-03T08:09:31.654Z,11.40
2019-03-03T08:12:00.620Z,11.80
2019-03-03T08:14:29.589Z,12.10
2019-03-03T08:16:59.015Z,12.50
2019-03-03T08:19:27.990Z,12.90
2019-03-03T08:21:56.904Z,13.40
2019-03-03T08:26:54.266Z,13.60
2019-03-03T08:29:23.124Z,13.90
2019-03-03T08:31:51.946Z,14.00
2019-03-03T08:34:20.807Z,14.20
2019-03-03T08:36:49.790Z,14.40
2019-03-03T08:39:18.678Z,14.30
2019-03-03T08:41:51.289Z,14.30
2019-03-03T08:44:23.769Z,14.40
2019-03-03T08:55:49.156Z,14.30
2019-03-03T08:58:40.631Z,14.40
2019-03-03T09:01:31.698Z,14.30
2019-03-03T09:04:16.650Z,14.30
2019-03-03T09:07:07.179Z,14.50
2019-03-03T09:09:52.075Z,14.60
2019-03-03T09:12:43.318Z,14.60
2019-03-03T09:15:29.952Z,14.80
2019-03-03T09:18:16.810Z,14.90
2019-03-03T09:20:54.846Z,15.00
2019-03-03T09:26:36.760Z,15.30
2019-03-03T09:29:27.732Z,15.40
2019-03-03T09:32:18.404Z,15.50
2019-03-03T09:35:15.151Z,15.60
2019-03-03T09:37:52.938Z,15.80
2019-03-03T09:40:27.882Z,16.00
2019-03-03T09:43:14.440Z,16.00
2019-03-03T09:46:11.419Z,15.90
2019-03-03T09:48:59.285Z,15.90
2019-03-03T09:54:40.856Z,16.10
2019-03-03T09:57:28.151Z,16.20
2019-03-03T10:00:06.778Z,16.10
2019-03-03T10:02:48.158Z,15.90
2019-03-03T10:05:36.398Z,15.90
2019-03-03T10:08:18.715Z,15.90
2019-03-03T10:11:09.235Z,16.00
2019-03-03T10:13:46.820Z,16.20
2019-03-03T10:16:26.013Z,16.20
2019-03-03T10:21:58.732Z,16.40
2019-03-03T10:24:46.543Z,16.40
2019-03-03T10:27:23.543Z,16.50
2019-03-03T10:30:10.348Z,16.60
2019-03-03T10:33:07.213Z,16.80
2019-03-03T10:35:56.338Z,16.80
2019-03-03T10:38:36.340Z,17.00
2019-03-03T10:41:24.006Z,17.40
2019-03-03T10:44:27.194Z,17.40
2019-03-03T10:47:11.953Z,17.50
2019-03-03T10:49:49.316Z,17.50
2019-03-03T10:52:43.105Z,17.60
2019-03-03T10:55:37.005Z,17.60
2019-03-03T10:58:21.714Z,17.70
2019-03-03T11:01:17.326Z,17.90
2019-03-03T11:03:53.026Z,17.90
2019-03-03T11:06:46.842Z,17.80
2019-03-03T11:09:50.586Z,17.40
2019-03-03T11:18:31.800Z,17.50
2019-03-03T11:21:16.957Z,17.60
2019-03-03T11:23:51.837Z,17.40
2019-03-03T11:26:39.660Z,17.20
2019-03-03T11:29:13.238Z,17.20
2019-03-03T11:32:07.306Z,17.30
2019-03-03T11:35:10.532Z,17.40
2019-03-03T11:37:57.125Z,17.30
2019-03-03T11:40:43.865Z,17.30
2019-03-03T11:43:43.837Z,17.50
2019-03-03T11:52:35.225Z,17.20
2019-03-03T11:55:21.835Z,17.20
2019-03-03T11:57:57.642Z,17.20
2019-03-03T12:00:41.077Z,16.70
2019-03-03T12:03:27.774Z,16.60
2019-03-03T12:06:14.027Z,16.70
2019-03-03T12:09:01.870Z,16.70
2019-03-03T12:11:48.855Z,16.90
2019-03-03T12:17:51.945Z,17.10
2019-03-03T12:23:21.692Z,17.10
2019-03-03T12:26:28.143Z,17.30
2019-03-03T12:29:07.665Z,17.30
2019-03-03T12:31:50.725Z,17.50
2019-03-03T12:34:47.259Z,17.60
2019-03-03T12:37:37.963Z,17.70
2019-03-03T12:40:18.916Z,17.60
2019-03-03T12:43:05.440Z,17.40
2019-03-03T12:45:47.670Z,17.20
2019-03-03T12:51:22.115Z,17.30
2019-03-03T12:54:08.671Z,17.30
2019-03-03T12:56:59.647Z,17.40
2019-03-03T12:59:37.022Z,17.20
2019-03-03T13:02:16.827Z,17.20
2019-03-03T13:05:03.642Z,17.30
2019-03-03T13:07:47.870Z,17.40
2019-03-03T13:10:41.847Z,17.50
2019-03-03T13:16:25.967Z,17.50
2019-03-03T13:19:08.121Z,17.60
2019-03-03T13:22:05.682Z,17.60
2019-03-03T13:24:53.621Z,17.70
2019-03-03T13:27:38.185Z,17.60
2019-03-03T13:30:32.309Z,17.60
2019-03-03T13:33:18.813Z,17.70
2019-03-03T13:36:09.106Z,17.90
2019-03-03T13:39:09.062Z,18.00
2019-03-03T13:44:31.465Z,17.90
2019-03-03T13:47:00.190Z,17.70
2019-03-03T13:49:29.019Z,17.50
2019-03-03T13:51:57.791Z,17.30
2019-03-03T13:54:26.604Z,17.50
2019-03-03T13:56:55.400Z,17.40
2019-03-03T13:59:24.201Z,17.30
2019-03-03T14:01:53.002Z,17.50
2019-03-03T14:06:50.293Z,15.90
2019-03-03T14:09:19.059Z,17.30
2019-03-03T14:11:47.760Z,17.40
2019-03-03T14:14:16.588Z,17.50
2019-03-03T14:16:45.377Z,17.50
2019-03-03T14:19:14.359Z,17.50
2019-03-03T14:21:43.060Z,17.50
2019-03-03T14:24:11.966Z,17.60
2019-03-03T14:29:09.575Z,17.60
2019-03-03T14:31:38.329Z,17.50
2019-03-03T14:34:07.391Z,17.30
2019-03-03T14:36:36.210Z,17.20
2019-03-03T14:39:05.912Z,17.30
2019-03-03T14:41:34.697Z,17.30
2019-03-03T14:44:03.539Z,17.20
2019-03-03T14:51:29.436Z,17.10
2019-03-03T14:53:58.236Z,17.00
2019-03-03T14:56:29.590Z,16.90
2019-03-03T14:58:58.314Z,16.90
2019-03-03T15:01:27.493Z,16.90
2019-03-03T15:03:56.243Z,16.90
2019-03-03T15:06:25.538Z,16.70
2019-03-03T15:11:22.683Z,16.70
2019-03-03T15:13:51.559Z,16.70
2019-03-03T15:16:20.318Z,16.60
2019-03-03T15:18:49.183Z,16.60
2019-03-03T15:21:24.698Z,16.70
2019-03-03T15:23:48.598Z,16.60
2019-03-03T15:26:17.883Z,16.70
2019-03-03T15:28:46.711Z,16.80
2019-03-03T15:33:44.458Z,16.70
2019-03-03T15:36:13.542Z,16.70
2019-03-03T15:38:42.366Z,16.70
2019-03-03T15:41:11.347Z,16.70
2019-03-03T15:43:40.170Z,16.70
2019-03-03T15:46:09.415Z,16.70
2019-03-03T15:48:38.850Z,16.60
2019-03-03T15:51:07.675Z,16.20
2019-03-03T15:56:05.254Z,16.40
2019-03-03T15:58:34.359Z,16.40
2019-03-03T16:01:03.109Z,16.40
2019-03-03T16:03:31.909Z,16.30
2019-03-03T16:06:00.706Z,16.30
2019-03-03T16:08:29.450Z,16.30
2019-03-03T16:10:58.628Z,16.20
2019-03-03T16:13:27.358Z,17.90
2019-03-03T16:18:24.656Z,16.00
2019-03-03T16:20:54.438Z,15.90
2019-03-03T16:23:23.200Z,15.80
2019-03-03T16:25:52.021Z,15.70
2019-03-03T16:28:21.491Z,15.60
2019-03-03T16:30:50.205Z,15.50
2019-03-03T16:33:20.900Z,15.50
2019-03-03T16:38:17.780Z,15.30
2019-03-03T16:40:46.847Z,15.10
2019-03-03T16:43:15.717Z,14.90
2019-03-03T16:45:44.450Z,14.90
2019-03-03T16:48:13.280Z,14.80
2019-03-03T16:50:42.072Z,14.60
2019-03-03T16:53:10.807Z,14.60
2019-03-03T16:55:39.618Z,14.50
2019-03-03T17:00:36.962Z,14.50
2019-03-03T17:03:05.772Z,14.40
2019-03-03T17:05:35.199Z,14.30
2019-03-03T17:08:04.703Z,14.30
2019-03-03T17:10:34.090Z,14.30
2019-03-03T17:13:03.979Z,14.30
2019-03-03T17:15:33.828Z,14.30
2019-03-03T17:18:03.176Z,14.20
2019-03-03T17:20:31.961Z,14.00
2019-03-03T17:23:00.792Z,14.10
2019-03-03T17:25:29.883Z,14.00
2019-03-03T17:27:58.651Z,13.70
2019-03-03T17:30:27.784Z,13.60
2019-03-03T17:32:56.555Z,13.50
2019-03-03T17:35:25.286Z,13.40
2019-03-03T17:37:56.378Z,13.40
2019-03-03T17:42:53.414Z,13.20
2019-03-03T17:45:22.195Z,13.20
2019-03-03T17:47:51.115Z,13.00
2019-03-03T17:50:20.546Z,12.70
2019-03-03T17:52:49.365Z,12.70
2019-03-03T17:55:18.272Z,12.60
2019-03-03T17:57:47.014Z,12.50
2019-03-03T18:00:19.020Z,12.20
2019-03-03T18:05:17.269Z,12.20
2019-03-03T18:07:46.111Z,12.10
2019-03-03T18:10:14.938Z,12.00
2019-03-03T18:12:43.723Z,11.90
2019-03-03T18:15:12.458Z,11.90
2019-03-03T18:17:41.193Z,11.90
2019-03-03T18:20:10.893Z,11.90
2019-03-03T18:22:40.018Z,11.90
2019-03-03T18:27:37.685Z,11.90
2019-03-03T18:30:08.542Z,11.90
2019-03-03T18:32:37.273Z,11.80
2019-03-03T18:35:06.303Z,11.70
2019-03-03T18:37:35.338Z,11.70
2019-03-03T18:40:04.669Z,11.80
2019-03-03T18:42:33.399Z,11.80
2019-03-03T18:45:02.176Z,11.80
2019-03-03T18:49:59.265Z,11.90
2019-03-03T18:52:28.483Z,11.90
2019-03-03T18:54:57.302Z,11.90
2019-03-03T18:57:26.404Z,11.90
2019-03-03T18:59:55.609Z,11.80
2019-03-03T19:02:24.406Z,11.80
2019-03-03T19:04:53.153Z,11.80
2019-03-03T19:07:21.984Z,11.70
2019-03-03T19:12:19.837Z,11.70
2019-03-03T19:14:48.606Z,11.50
2019-03-03T19:17:17.665Z,11.40
2019-03-03T19:19:46.417Z,11.40
2019-03-03T19:22:15.534Z,11.30
2019-03-03T19:24:44.285Z,11.10
2019-03-03T19:27:13.077Z,11.00
2019-03-03T19:29:41.834Z,11.00
2019-03-03T19:34:38.971Z,10.90
2019-03-03T19:37:07.991Z,10.80
2019-03-03T19:39:36.961Z,10.70
2019-03-03T19:42:05.829Z,10.50
2019-03-03T19:44:34.699Z,10.50
2019-03-03T19:47:03.443Z,10.30
2019-03-03T19:49:32.208Z,10.20
2019-03-03T19:52:00.976Z,10.20
2019-03-03T19:56:58.080Z,10.20
2019-03-03T19:59:26.823Z,10.10
2019-03-03T20:01:55.698Z,10.00
2019-03-03T20:04:24.504Z,9.90
2019-03-03T20:06:53.354Z,9.80
2019-03-03T20:09:22.191Z,9.70
2019-03-03T20:11:50.967Z,9.60
2019-03-03T20:16:48.128Z,9.50
2019-03-03T20:19:16.907Z,9.40
2019-03-03T20:21:46.765Z,9.30
2019-03-03T20:24:15.642Z,9.20
2019-03-03T20:26:44.424Z,9.10
2019-03-03T20:29:13.181Z,9.10
2019-03-03T20:31:42.360Z,9.10
2019-03-03T20:34:12.112Z,9.10
2019-03-03T20:39:09.672Z,9.00
2019-03-03T20:41:38.788Z,9.00
2019-03-03T20:44:07.694Z,9.00
2019-03-03T20:46:36.507Z,8.90
2019-03-03T20:49:05.412Z,8.80
2019-03-03T20:51:34.263Z,8.70
2019-03-03T20:54:03.013Z,8.70
2019-03-03T20:56:31.733Z,8.50
2019-03-03T21:01:29.014Z,8.50
2019-03-03T21:03:57.777Z,8.60
2019-03-03T21:06:26.721Z,8.60
2019-03-03T21:08:55.651Z,8.60
2019-03-03T21:11:24.537Z,8.60
2019-03-03T21:13:53.270Z,8.60
2019-03-03T21:16:22.116Z,8.60
2019-03-03T21:18:50.859Z,8.60
2019-03-03T21:23:48.016Z,8.50
2019-03-03T21:26:16.881Z,8.50
2019-03-03T21:28:45.626Z,8.60
2019-03-03T21:31:14.388Z,8.50
2019-03-03T21:33:43.244Z,8.60
2019-03-03T21:36:11.974Z,8.60
2019-03-03T21:38:40.713Z,8.40
2019-03-03T21:41:09.483Z,8.10
2019-03-03T21:46:06.637Z,8.10
2019-03-03T21:48:35.404Z,8.00
2019-03-03T21:51:04.199Z,8.00
2019-03-03T21:53:32.929Z,8.00
2019-03-03T21:56:02.199Z,7.90
2019-03-03T21:58:31.005Z,7.90
2019-03-03T22:00:59.830Z,7.90
2019-03-03T22:03:29.883Z,7.90
2019-03-03T22:08:27.438Z,7.80
2019-03-03T22:10:56.436Z,7.90
2019-03-03T22:13:25.851Z,7.90
2019-03-03T22:15:55.130Z,7.90
2019-03-03T22:18:31.284Z,8.00
2019-03-03T22:21:00.151Z,8.00
2019-03-03T22:23:28.958Z,8.00
2019-03-03T22:28:26.479Z,8.20
2019-03-03T22:30:57.481Z,8.20
2019-03-03T22:33:28.101Z,8.30
2019-03-03T22:35:57.045Z,8.40
2019-03-03T22:40:57.156Z,8.60
2019-03-03T22:45:55.162Z,8.40
2019-03-03T22:50:55.136Z,8.60
2019-03-03T22:53:25.979Z,8.70
2019-03-03T22:55:55.038Z,8.60
2019-03-03T22:58:24.319Z,8.60
2019-03-03T23:01:04.799Z,8.60
2019-03-03T23:03:41.089Z,8.50
2019-03-03T23:06:34.669Z,8.50
2019-03-03T23:09:45.674Z,8.40
2019-03-03T23:13:03.857Z,8.50
2019-03-03T23:15:46.731Z,8.50
2019-03-03T23:18:39.279Z,8.50
2019-03-03T23:21:45.814Z,8.30
2019-03-03T23:27:14.539Z,8.30
2019-03-03T23:29:43.689Z,8.30
2019-03-03T23:32:12.612Z,8.50
2019-03-03T23:42:07.330Z,8.30
2019-03-03T23:44:38.274Z,8.40
2019-03-03T23:49:35.856Z,8.50
2019-03-03T23:52:08.108Z,8.40
2019-03-03T23:54:37.117Z,8.50
2019-03-03T23:59:34.531Z,8.40
